createdAt,value
2017-03-21T00:00:51.798Z,100
2017-03-21T00:01:53.643Z,100
2017-03-21T00:02:55.879Z,100
2017-03-21T00:03:57.739Z,100
2017-03-21T00:05:00.100Z,100
2017-03-21T00:06:01.951Z,100
2017-03-21T00:07:03.951Z,100
2017-03-21T00:08:05.796Z,100
2017-03-21T00:09:07.777Z,100
2017-03-21T00:10:09.977Z,100
2017-03-21T00:11:11.981Z,100
2017-03-21T00:12:14.176Z,100
2017-03-21T00:13:16.024Z,100
2017-03-21T00:14:18.224Z,100
2017-03-21T00:15:20.419Z,100
2017-03-21T00:16:22.261Z,100
2017-03-21T00:17:24.119Z,100
2017-03-21T00:18:25.965Z,100
2017-03-21T00:19:28.174Z,100
2017-03-21T00:20:30.017Z,100
2017-03-21T00:21:31.972Z,100
2017-03-21T00:22:34.154Z,100
2017-03-21T00:23:36.721Z,100
2017-03-21T00:24:38.586Z,100
2017-03-21T00:25:40.426Z,100
2017-03-21T00:26:42.278Z,100
2017-03-21T00:27:44.125Z,100
2017-03-21T00:28:46.656Z,100
2017-03-21T00:29:48.864Z,100
2017-03-21T00:30:50.704Z,100
2017-03-21T00:31:52.546Z,100
2017-03-21T00:32:54.747Z,100
2017-03-21T00:33:56.949Z,100
2017-03-21T00:34:58.805Z,100
2017-03-21T00:36:00.803Z,100
2017-03-21T00:37:02.646Z,100
2017-03-21T00:38:04.502Z,100
2017-03-21T00:39:06.705Z,100
2017-03-21T00:40:08.551Z,100
2017-03-21T00:41:10.395Z,100
2017-03-21T00:42:12.243Z,100
2017-03-21T00:43:14.431Z,100
2017-03-21T00:44:16.295Z,100
2017-03-21T00:45:18.474Z,100
2017-03-21T00:46:20.314Z,100
2017-03-21T00:47:22.151Z,100
2017-03-21T00:48:24.425Z,100
2017-03-21T00:49:26.281Z,100
2017-03-21T00:50:28.484Z,100
2017-03-21T00:51:30.329Z,100
2017-03-21T00:52:32.518Z,100
2017-03-21T00:53:34.371Z,100
2017-03-21T00:54:36.890Z,100
2017-03-21T00:55:38.929Z,100
2017-03-21T00:56:41.116Z,100
2017-03-21T00:57:43.549Z,100
2017-03-21T00:58:45.397Z,100
2017-03-21T00:59:47.270Z,100
2017-03-21T01:00:49.226Z,100
2017-03-21T01:01:51.077Z,100
2017-03-21T01:02:52.928Z,100
2017-03-21T01:03:55.500Z,100
2017-03-21T01:04:58.384Z,100
2017-03-21T01:06:00.590Z,100
2017-03-21T01:07:02.429Z,100
2017-03-21T01:08:04.613Z,100
2017-03-21T01:09:06.804Z,100
2017-03-21T01:10:08.682Z,100
2017-03-21T01:11:10.520Z,100
2017-03-21T01:12:12.849Z,100
2017-03-21T01:13:15.372Z,100
2017-03-21T01:14:17.826Z,100
2017-03-21T01:15:20.026Z,100
2017-03-21T01:16:21.868Z,100
2017-03-21T01:17:23.864Z,100
2017-03-21T01:18:26.392Z,100
2017-03-21T01:19:28.249Z,100
2017-03-21T01:20:30.448Z,100
2017-03-21T01:21:32.291Z,100
2017-03-21T01:22:34.147Z,100
2017-03-21T01:23:36.920Z,100
2017-03-21T01:24:39.443Z,100
2017-03-21T01:25:41.283Z,100
2017-03-21T01:26:43.659Z,100
2017-03-21T01:27:45.510Z,100
2017-03-21T01:28:47.628Z,100
2017-03-21T01:29:49.826Z,100
2017-03-21T01:30:51.685Z,100
2017-03-21T01:31:53.668Z,100
2017-03-21T01:32:56.547Z,100
2017-03-21T01:33:58.392Z,100
2017-03-21T01:35:00.799Z,100
2017-03-21T01:36:02.646Z,100
2017-03-21T01:37:04.488Z,100
2017-03-21T01:38:06.879Z,100
2017-03-21T01:39:08.727Z,100
2017-03-21T01:40:10.577Z,100
2017-03-21T01:41:12.782Z,100
2017-03-21T01:42:14.614Z,100
2017-03-21T01:43:16.489Z,100
2017-03-21T01:44:18.795Z,100
2017-03-21T01:45:20.647Z,100
2017-03-21T01:46:22.501Z,100
2017-03-21T01:47:24.629Z,100
2017-03-21T01:48:26.810Z,100
2017-03-21T01:49:28.655Z,100
2017-03-21T01:50:30.662Z,100
2017-03-21T01:51:32.511Z,100
2017-03-21T01:52:34.716Z,100
2017-03-21T01:53:37.167Z,100
2017-03-21T01:54:39.022Z,100
2017-03-21T01:55:40.863Z,100
2017-03-21T01:56:42.759Z,100
2017-03-21T01:57:44.607Z,100
2017-03-21T01:58:46.453Z,100
2017-03-21T01:59:48.913Z,100
2017-03-21T02:00:50.757Z,100
2017-03-21T02:01:52.599Z,100
2017-03-21T02:02:55.144Z,100
2017-03-21T02:03:56.989Z,100
2017-03-21T02:04:59.197Z,100
2017-03-21T02:06:01.558Z,100
2017-03-21T02:07:03.750Z,100
2017-03-21T02:08:06.183Z,100
2017-03-21T02:09:08.376Z,100
2017-03-21T02:10:10.221Z,100
2017-03-21T02:11:12.331Z,100
2017-03-21T02:12:14.179Z,100
2017-03-21T02:13:16.759Z,100
2017-03-21T02:14:19.492Z,100
2017-03-21T02:15:21.334Z,100
2017-03-21T02:16:23.214Z,100
2017-03-21T02:17:25.055Z,100
2017-03-21T02:18:27.230Z,100
2017-03-21T02:19:29.074Z,100
2017-03-21T02:20:30.922Z,100
2017-03-21T02:21:32.764Z,100
2017-03-21T02:22:34.948Z,100
2017-03-21T02:23:37.714Z,100
2017-03-21T02:24:40.740Z,100
2017-03-21T02:25:42.581Z,100
2017-03-21T02:26:44.428Z,100
2017-03-21T02:27:46.616Z,100
2017-03-21T02:28:48.471Z,100
2017-03-21T02:29:50.802Z,100
2017-03-21T02:30:52.644Z,100
2017-03-21T02:31:54.492Z,100
2017-03-21T02:32:56.353Z,100
2017-03-21T02:33:58.438Z,100
2017-03-21T02:35:00.961Z,100
2017-03-21T02:36:02.807Z,100
2017-03-21T02:37:05.002Z,100
2017-03-21T02:38:06.868Z,100
2017-03-21T02:39:09.071Z,100
2017-03-21T02:40:11.268Z,100
2017-03-21T02:41:13.454Z,100
2017-03-21T02:42:15.302Z,100
2017-03-21T02:43:17.832Z,100
2017-03-21T02:44:20.353Z,100
2017-03-21T02:45:23.224Z,100
2017-03-21T02:46:25.070Z,100
2017-03-21T02:47:27.262Z,100
2017-03-21T02:48:29.658Z,100
2017-03-21T02:49:31.858Z,100
2017-03-21T02:50:33.698Z,100
2017-03-21T02:51:35.544Z,100
2017-03-21T02:52:38.048Z,100
2017-03-21T02:53:40.256Z,100
2017-03-21T02:54:42.439Z,100
2017-03-21T02:55:44.281Z,100
2017-03-21T02:56:46.771Z,100
2017-03-21T02:57:48.628Z,100
2017-03-21T02:58:50.813Z,100
2017-03-21T02:59:53.007Z,100
2017-03-21T03:00:54.842Z,100
2017-03-21T03:01:56.692Z,100
2017-03-21T03:02:58.539Z,100
2017-03-21T03:04:00.733Z,100
2017-03-21T03:05:02.570Z,100
2017-03-21T03:06:04.431Z,100
2017-03-21T03:07:06.279Z,100
2017-03-21T03:08:08.140Z,100
2017-03-21T03:09:10.520Z,100
2017-03-21T03:10:12.696Z,100
2017-03-21T03:11:14.548Z,100
2017-03-21T03:12:16.750Z,100
2017-03-21T03:13:19.274Z,100
2017-03-21T03:14:21.733Z,100
2017-03-21T03:15:23.933Z,100
2017-03-21T03:16:25.783Z,100
2017-03-21T03:17:27.639Z,100
2017-03-21T03:18:29.826Z,100
2017-03-21T03:19:32.365Z,100
2017-03-21T03:20:34.212Z,100
2017-03-21T03:21:36.065Z,100
2017-03-21T03:22:38.926Z,100
2017-03-21T03:23:41.126Z,100
2017-03-21T03:24:43.331Z,100
2017-03-21T03:25:45.186Z,100
2017-03-21T03:26:47.029Z,100
2017-03-21T03:27:50.123Z,100
2017-03-21T03:28:52.313Z,100
2017-03-21T03:29:54.161Z,100
2017-03-21T03:30:56.012Z,100
2017-03-21T03:31:58.400Z,100
2017-03-21T03:33:00.253Z,100
2017-03-21T03:34:02.446Z,100
2017-03-21T03:35:04.295Z,100
2017-03-21T03:36:06.532Z,100
2017-03-21T03:37:08.374Z,100
2017-03-21T03:38:10.230Z,100
2017-03-21T03:39:12.075Z,100
2017-03-21T03:40:14.162Z,100
2017-03-21T03:41:16.003Z,100
2017-03-21T03:42:17.845Z,100
2017-03-21T03:43:19.708Z,100
2017-03-21T03:44:22.153Z,100
2017-03-21T03:45:24.348Z,100
2017-03-21T03:46:26.244Z,100
2017-03-21T03:47:28.089Z,100
2017-03-21T03:48:30.286Z,100
2017-03-21T03:49:32.481Z,100
2017-03-21T03:50:34.328Z,100
2017-03-21T03:51:36.519Z,100
2017-03-21T03:52:39.248Z,100
2017-03-21T03:53:41.106Z,100
2017-03-21T03:54:43.286Z,100
2017-03-21T03:55:45.469Z,100
2017-03-21T03:56:47.645Z,100
2017-03-21T03:57:50.043Z,100
2017-03-21T03:58:51.900Z,100
2017-03-21T03:59:54.441Z,100
2017-03-21T04:00:56.625Z,100
2017-03-21T04:01:58.625Z,100
2017-03-21T04:03:00.481Z,100
2017-03-21T04:04:02.345Z,100
2017-03-21T04:05:04.201Z,100
2017-03-21T04:06:06.047Z,100
2017-03-21T04:07:07.887Z,100
2017-03-21T04:08:10.077Z,100
2017-03-21T04:09:11.924Z,100
2017-03-21T04:10:13.778Z,100
2017-03-21T04:11:15.621Z,100
2017-03-21T04:12:17.465Z,100
2017-03-21T04:13:19.328Z,100
2017-03-21T04:14:21.877Z,100
2017-03-21T04:15:24.102Z,100
2017-03-21T04:16:26.270Z,100
2017-03-21T04:17:28.126Z,100
2017-03-21T04:18:29.982Z,100
2017-03-21T04:19:32.172Z,100
2017-03-21T04:20:34.368Z,100
2017-03-21T04:21:36.391Z,100
2017-03-21T04:22:38.576Z,100
2017-03-21T04:23:40.758Z,100
2017-03-21T04:24:42.619Z,100
2017-03-21T04:25:44.465Z,100
2017-03-21T04:26:46.771Z,100
2017-03-21T04:27:48.950Z,100
2017-03-21T04:28:50.810Z,100
2017-03-21T04:29:52.993Z,100
2017-03-21T04:30:54.837Z,100
2017-03-21T04:31:57.161Z,100
2017-03-21T04:32:59.092Z,100
2017-03-21T04:34:01.635Z,100
2017-03-21T04:35:03.816Z,100
2017-03-21T04:36:05.653Z,100
2017-03-21T04:37:07.497Z,100
2017-03-21T04:38:09.869Z,100
2017-03-21T04:39:12.061Z,100
2017-03-21T04:40:13.904Z,100
2017-03-21T04:41:16.237Z,100
2017-03-21T04:42:18.425Z,100
2017-03-21T04:43:21.305Z,100
2017-03-21T04:44:23.538Z,100
2017-03-21T04:45:25.380Z,100
2017-03-21T04:46:27.229Z,100
2017-03-21T04:47:29.069Z,100
2017-03-21T04:48:30.929Z,100
2017-03-21T04:49:33.107Z,100
2017-03-21T04:50:35.293Z,100
2017-03-21T04:51:37.476Z,100
2017-03-21T04:52:39.323Z,100
2017-03-21T04:53:41.514Z,100
2017-03-21T04:54:43.702Z,100
2017-03-21T04:55:45.543Z,100
2017-03-21T04:56:47.392Z,100
2017-03-21T04:57:49.567Z,100
2017-03-21T04:58:51.767Z,100
2017-03-21T04:59:54.649Z,100
2017-03-21T05:00:57.027Z,100
2017-03-21T05:01:59.211Z,100
2017-03-21T05:03:01.066Z,100
2017-03-21T05:04:03.958Z,100
2017-03-21T05:05:05.909Z,100
2017-03-21T05:06:07.759Z,100
2017-03-21T05:07:09.613Z,100
2017-03-21T05:08:11.474Z,100
2017-03-21T05:09:13.661Z,100
2017-03-21T05:10:16.193Z,100
2017-03-21T05:11:18.038Z,100
2017-03-21T05:12:19.888Z,100
2017-03-21T05:13:21.736Z,100
2017-03-21T05:14:24.278Z,100
2017-03-21T05:15:26.129Z,100
2017-03-21T05:16:27.970Z,100
2017-03-21T05:17:30.385Z,100
2017-03-21T05:18:32.249Z,100
2017-03-21T05:19:34.430Z,100
2017-03-21T05:20:36.610Z,100
2017-03-21T05:21:38.515Z,100
2017-03-21T05:22:40.697Z,100
2017-03-21T05:23:42.900Z,100
2017-03-21T05:24:45.084Z,100
2017-03-21T05:25:47.266Z,100
2017-03-21T05:26:49.119Z,100
2017-03-21T05:27:50.971Z,100
2017-03-21T05:28:53.515Z,100
2017-03-21T05:29:56.087Z,100
2017-03-21T05:30:57.933Z,100
2017-03-21T05:31:59.779Z,100
2017-03-21T05:33:01.632Z,100
2017-03-21T05:34:03.965Z,100
2017-03-21T05:35:05.803Z,100
2017-03-21T05:36:07.653Z,100
2017-03-21T05:37:09.497Z,100
2017-03-21T05:38:12.134Z,100
2017-03-21T05:39:14.639Z,100
2017-03-21T05:40:16.500Z,100
2017-03-21T05:41:18.713Z,100
2017-03-21T05:42:20.555Z,100
2017-03-21T05:43:23.096Z,100
2017-03-21T05:44:25.952Z,100
2017-03-21T05:45:27.861Z,100
2017-03-21T05:46:29.698Z,100
2017-03-21T05:47:31.551Z,100
2017-03-21T05:48:33.394Z,100
2017-03-21T05:49:35.252Z,100
2017-03-21T05:50:37.084Z,100
2017-03-21T05:51:38.938Z,100
2017-03-21T05:52:41.118Z,100
2017-03-21T05:53:42.975Z,100
2017-03-21T05:54:44.821Z,100
2017-03-21T05:55:46.660Z,100
2017-03-21T05:56:48.510Z,100
2017-03-21T05:57:50.358Z,100
2017-03-21T05:58:52.539Z,100
2017-03-21T05:59:54.735Z,100
2017-03-21T06:00:57.281Z,100
2017-03-21T06:01:59.136Z,100
2017-03-21T06:03:01.316Z,100
2017-03-21T06:04:03.501Z,100
2017-03-21T06:05:05.350Z,100
2017-03-21T06:06:07.195Z,100
2017-03-21T06:07:09.382Z,100
2017-03-21T06:08:11.228Z,100
2017-03-21T06:09:14.103Z,100
2017-03-21T06:10:16.408Z,100
2017-03-21T06:11:18.257Z,100
2017-03-21T06:12:20.086Z,100
2017-03-21T06:13:21.936Z,100
2017-03-21T06:14:24.426Z,100
2017-03-21T06:15:26.292Z,100
2017-03-21T06:16:28.140Z,100
2017-03-21T06:17:29.986Z,100
2017-03-21T06:18:32.335Z,100
2017-03-21T06:19:34.539Z,100
2017-03-21T06:20:36.371Z,100
2017-03-21T06:21:38.221Z,100
2017-03-21T06:22:40.487Z,100
2017-03-21T06:23:42.338Z,100
2017-03-21T06:24:44.189Z,100
2017-03-21T06:25:46.027Z,100
2017-03-21T06:26:47.933Z,100
2017-03-21T06:27:50.110Z,100
2017-03-21T06:28:52.633Z,100
2017-03-21T06:29:54.519Z,100
2017-03-21T06:30:56.708Z,100
2017-03-21T06:31:58.890Z,100
2017-03-21T06:33:00.741Z,100
2017-03-21T06:34:02.593Z,100
2017-03-21T06:35:04.432Z,100
2017-03-21T06:36:06.275Z,100
2017-03-21T06:37:08.453Z,100
2017-03-21T06:38:10.639Z,100
2017-03-21T06:39:12.483Z,100
2017-03-21T06:40:14.333Z,100
2017-03-21T06:41:16.170Z,100
2017-03-21T06:42:18.051Z,100
2017-03-21T06:43:19.902Z,100
2017-03-21T06:44:21.753Z,100
2017-03-21T06:45:23.931Z,100
2017-03-21T06:46:25.770Z,100
2017-03-21T06:47:27.605Z,100
2017-03-21T06:48:30.140Z,100
2017-03-21T06:49:32.680Z,100
2017-03-21T06:50:34.533Z,100
2017-03-21T06:51:36.977Z,100
2017-03-21T06:52:39.164Z,100
2017-03-21T06:53:41.024Z,100
2017-03-21T06:54:43.332Z,100
2017-03-21T06:55:45.183Z,100
2017-03-21T06:56:47.029Z,100
2017-03-21T06:57:49.228Z,100
2017-03-21T06:58:51.650Z,100
2017-03-21T06:59:54.192Z,100
2017-03-21T07:00:56.038Z,100
2017-03-21T07:01:57.894Z,100
2017-03-21T07:03:00.129Z,100
2017-03-21T07:04:01.983Z,100
2017-03-21T07:05:04.163Z,100
2017-03-21T07:06:06.009Z,100
2017-03-21T07:07:08.020Z,100
2017-03-21T07:08:10.203Z,100
2017-03-21T07:09:12.054Z,100
2017-03-21T07:10:13.918Z,100
2017-03-21T07:11:15.817Z,100
2017-03-21T07:12:17.663Z,100
2017-03-21T07:13:19.850Z,100
2017-03-21T07:14:21.700Z,100
2017-03-21T07:15:23.625Z,100
2017-03-21T07:16:25.472Z,100
2017-03-21T07:17:27.316Z,100
2017-03-21T07:18:29.162Z,99.8
2017-03-21T07:19:31.425Z,99.9
2017-03-21T07:20:33.266Z,99.8
2017-03-21T07:21:35.120Z,99.8
2017-03-21T07:22:37.300Z,99.3
2017-03-21T07:23:39.650Z,99.7
2017-03-21T07:24:41.836Z,99.1
2017-03-21T07:25:43.696Z,98.6
2017-03-21T07:26:45.533Z,98.5
2017-03-21T07:27:47.378Z,98.9
2017-03-21T07:28:49.248Z,98.3
2017-03-21T07:29:51.099Z,98.8
2017-03-21T07:30:53.281Z,98.7
2017-03-21T07:31:55.128Z,98
2017-03-21T07:32:57.303Z,97.7
2017-03-21T07:33:59.502Z,98.3
2017-03-21T07:35:01.357Z,97.8
2017-03-21T07:36:03.540Z,97.1
2017-03-21T07:37:06.066Z,96.8
2017-03-21T07:38:07.919Z,96.2
2017-03-21T07:39:10.094Z,96.7
2017-03-21T07:40:12.615Z,97
2017-03-21T07:41:14.460Z,96.7
2017-03-21T07:42:16.312Z,96.6
2017-03-21T07:43:18.170Z,96.7
2017-03-21T07:44:20.015Z,96.8
2017-03-21T07:45:21.910Z,98.2
2017-03-21T07:46:23.755Z,96.1
2017-03-21T07:47:25.609Z,95.4
2017-03-21T07:48:27.465Z,94.7
2017-03-21T07:49:29.651Z,95
2017-03-21T07:50:31.856Z,94.7
2017-03-21T07:51:33.697Z,94.5
2017-03-21T07:52:35.896Z,94.4
2017-03-21T07:53:37.753Z,94.3
2017-03-21T07:54:39.935Z,94.1
2017-03-21T07:55:41.778Z,93.7
2017-03-21T07:56:43.633Z,93.3
2017-03-21T07:57:45.481Z,91.9
2017-03-21T07:58:47.342Z,92.4
2017-03-21T07:59:49.189Z,92.1
2017-03-21T08:00:51.040Z,92.3
2017-03-21T08:01:52.883Z,92.3
2017-03-21T08:02:54.743Z,92.7
2017-03-21T08:03:56.596Z,93.1
2017-03-21T08:04:58.453Z,93.4
2017-03-21T08:06:00.888Z,93.1
2017-03-21T08:07:02.779Z,92.8
2017-03-21T08:08:05.000Z,92.8
2017-03-21T08:09:06.871Z,92.4
2017-03-21T08:10:09.100Z,92
2017-03-21T08:11:10.959Z,92.6
2017-03-21T08:12:12.811Z,91.6
2017-03-21T08:13:14.667Z,91.9
2017-03-21T08:14:16.879Z,90.5
2017-03-21T08:15:18.738Z,90.2
2017-03-21T08:16:20.951Z,90.7
2017-03-21T08:17:22.906Z,89
2017-03-21T08:18:24.802Z,89.7
2017-03-21T08:19:27.320Z,87.4
2017-03-21T08:20:29.217Z,88.1
2017-03-21T08:21:31.902Z,87.2
2017-03-21T08:22:33.881Z,88.3
2017-03-21T08:23:35.743Z,86.4
2017-03-21T08:24:38.196Z,87.5
2017-03-21T08:25:40.078Z,85.9
2017-03-21T08:26:41.983Z,85.4
2017-03-21T08:27:43.865Z,84.8
2017-03-21T08:28:45.772Z,84.1
2017-03-21T08:29:48.014Z,84.3
2017-03-21T08:30:49.866Z,83.7
2017-03-21T08:31:51.736Z,84.3
2017-03-21T08:32:54.166Z,83.1
2017-03-21T08:33:56.069Z,83.1
2017-03-21T08:34:57.945Z,83.5
2017-03-21T08:35:59.807Z,82.5
2017-03-21T08:37:01.672Z,81.6
2017-03-21T08:38:04.961Z,81.4
2017-03-21T08:39:06.837Z,80.3
2017-03-21T08:40:08.698Z,79.4
2017-03-21T08:41:11.129Z,79.6
2017-03-21T08:42:13.354Z,82.1
2017-03-21T08:43:15.229Z,80.2
2017-03-21T08:44:17.094Z,82.3
2017-03-21T08:45:18.952Z,79.3
2017-03-21T08:46:20.806Z,79.5
2017-03-21T08:47:22.657Z,79.2
2017-03-21T08:48:25.139Z,79.5
2017-03-21T08:49:27.479Z,78.9
2017-03-21T08:50:29.717Z,78.6
2017-03-21T08:51:31.626Z,78.4
2017-03-21T08:52:33.475Z,78.1
2017-03-21T08:53:35.328Z,78.3
2017-03-21T08:54:37.227Z,78.3
2017-03-21T08:55:39.741Z,77.7
2017-03-21T08:56:41.625Z,75.3
2017-03-21T08:57:43.488Z,76.8
2017-03-21T08:58:45.689Z,75
2017-03-21T08:59:47.583Z,74.5
2017-03-21T09:00:49.434Z,72.8
2017-03-21T09:01:51.302Z,74.2
2017-03-21T09:02:53.174Z,74.5
2017-03-21T09:03:55.157Z,73.6
2017-03-21T09:04:57.010Z,73.4
2017-03-21T09:05:58.873Z,74.4
2017-03-21T09:07:00.730Z,74.8
2017-03-21T09:08:02.593Z,74.7
2017-03-21T09:09:04.823Z,74.8
2017-03-21T09:10:06.683Z,73
2017-03-21T09:11:08.559Z,73.4
2017-03-21T09:12:10.414Z,73.2
2017-03-21T09:13:12.310Z,72.2
2017-03-21T09:14:14.703Z,73.5
2017-03-21T09:15:16.560Z,73.1
2017-03-21T09:16:18.410Z,73.4
2017-03-21T09:17:20.621Z,75.4
2017-03-21T09:18:22.479Z,73.4
2017-03-21T09:19:24.354Z,75
2017-03-21T09:20:26.808Z,74
2017-03-21T09:21:28.691Z,74.2
2017-03-21T09:22:30.556Z,74
2017-03-21T09:23:33.039Z,76
2017-03-21T09:24:34.920Z,76.1
2017-03-21T09:25:36.834Z,74.3
2017-03-21T09:26:39.189Z,74.5
2017-03-21T09:27:41.041Z,74.2
2017-03-21T09:28:42.912Z,72.2
2017-03-21T09:29:45.712Z,72.2
2017-03-21T09:30:47.563Z,71.4
2017-03-21T09:31:49.418Z,72.1
2017-03-21T09:32:51.740Z,72.3
2017-03-21T09:33:54.289Z,71.4
2017-03-21T09:34:56.224Z,72.5
2017-03-21T09:35:58.119Z,69.6
2017-03-21T09:37:00.048Z,71.3
2017-03-21T09:38:01.908Z,69.9
2017-03-21T09:39:04.224Z,68.5
2017-03-21T09:40:06.077Z,69.9
2017-03-21T09:41:07.964Z,68.6
2017-03-21T09:42:10.422Z,69.8
2017-03-21T09:43:12.280Z,69.1
2017-03-21T09:44:14.131Z,67.4
2017-03-21T09:45:16.582Z,66.1
2017-03-21T09:46:18.440Z,65.8
2017-03-21T09:47:20.303Z,64.8
2017-03-21T09:48:22.795Z,65.8
2017-03-21T09:49:24.664Z,65
2017-03-21T09:50:26.527Z,64.7
2017-03-21T09:51:28.956Z,64.6
2017-03-21T09:52:30.869Z,62.9
2017-03-21T09:53:32.735Z,63.4
2017-03-21T09:54:35.116Z,63.4
2017-03-21T09:55:37.001Z,63.7
2017-03-21T09:56:39.224Z,63.6
2017-03-21T09:57:41.970Z,64.8
2017-03-21T09:58:43.865Z,64.8
2017-03-21T09:59:45.761Z,63.8
2017-03-21T10:00:48.432Z,65.4
2017-03-21T10:01:50.299Z,65.8
2017-03-21T10:02:52.196Z,65.3
2017-03-21T10:03:54.420Z,64.6
2017-03-21T10:04:56.280Z,64.9
2017-03-21T10:05:58.144Z,62.2
2017-03-21T10:07:00.922Z,62.5
2017-03-21T10:08:02.777Z,62.4
2017-03-21T10:09:04.650Z,63
2017-03-21T10:10:06.994Z,60.8
2017-03-21T10:11:08.859Z,63
2017-03-21T10:12:10.706Z,62.8
2017-03-21T10:13:12.606Z,64
2017-03-21T10:14:14.470Z,64.6
2017-03-21T10:15:16.349Z,63.8
2017-03-21T10:16:18.199Z,65.6
2017-03-21T10:17:20.050Z,62.8
2017-03-21T10:18:21.938Z,63.7
2017-03-21T10:19:23.818Z,62.4
2017-03-21T10:20:25.762Z,63.3
2017-03-21T10:21:27.956Z,65.6
2017-03-21T10:22:29.882Z,63.7
2017-03-21T10:23:31.767Z,63.1
2017-03-21T10:24:33.658Z,62.7
2017-03-21T10:25:35.853Z,63.2
2017-03-21T10:26:38.040Z,62.1
2017-03-21T10:27:39.932Z,64.2
2017-03-21T10:28:41.792Z,63.3
2017-03-21T10:29:43.657Z,63.8
2017-03-21T10:30:45.611Z,65.1
2017-03-21T10:31:47.836Z,65.6
2017-03-21T10:32:49.735Z,63.1
2017-03-21T10:33:51.937Z,63.3
2017-03-21T10:34:53.794Z,61.6
2017-03-21T10:35:55.662Z,61.7
2017-03-21T10:36:57.737Z,61.8
2017-03-21T10:37:59.600Z,61.4
2017-03-21T10:39:01.967Z,60.2
2017-03-21T10:40:04.208Z,59.9
2017-03-21T10:41:06.070Z,60.1
2017-03-21T10:42:07.964Z,59.6
2017-03-21T10:43:09.815Z,59.9
2017-03-21T10:44:11.675Z,61.3
2017-03-21T10:45:13.602Z,60.8
2017-03-21T10:46:15.718Z,59.4
2017-03-21T10:47:17.578Z,58.1
2017-03-21T10:48:19.435Z,57.6
2017-03-21T10:49:21.547Z,58
2017-03-21T10:50:23.449Z,59.9
2017-03-21T10:51:25.665Z,59.4
2017-03-21T10:52:27.629Z,58.1
2017-03-21T10:53:29.561Z,58.1
2017-03-21T10:54:31.423Z,59.3
2017-03-21T10:55:33.280Z,59
2017-03-21T10:56:35.291Z,58.3
2017-03-21T10:57:37.153Z,57.1
2017-03-21T10:58:39.052Z,57.8
2017-03-21T10:59:40.900Z,58.9
2017-03-21T11:00:42.764Z,59
2017-03-21T11:01:44.626Z,58.2
2017-03-21T11:02:46.509Z,57.4
2017-03-21T11:03:48.389Z,57.5
2017-03-21T11:04:50.243Z,57.7
2017-03-21T11:05:52.220Z,61
2017-03-21T11:06:54.078Z,59.7
2017-03-21T11:07:55.970Z,59.2
2017-03-21T11:08:58.025Z,60.1
2017-03-21T11:09:59.895Z,59.2
2017-03-21T11:11:01.760Z,61.1
2017-03-21T11:12:04.142Z,60.9
2017-03-21T11:13:06.004Z,60.9
2017-03-21T11:14:07.869Z,62.8
2017-03-21T11:15:09.831Z,62.8
2017-03-21T11:16:11.700Z,62.5
2017-03-21T11:17:13.575Z,64.5
2017-03-21T11:18:15.443Z,64.7
2017-03-21T11:19:17.508Z,64.4
2017-03-21T11:20:19.366Z,64.3
2017-03-21T11:21:21.233Z,65
2017-03-21T11:22:23.186Z,65.1
2017-03-21T11:23:25.045Z,64.6
2017-03-21T11:24:26.900Z,64.8
2017-03-21T11:25:29.000Z,67
2017-03-21T11:26:30.874Z,65.9
2017-03-21T11:27:32.744Z,63.7
2017-03-21T11:28:34.746Z,63.8
2017-03-21T11:29:36.591Z,63.9
2017-03-21T11:30:38.483Z,63.7
2017-03-21T11:31:40.377Z,64.8
2017-03-21T11:32:42.223Z,63.5
2017-03-21T11:33:44.089Z,63.6
2017-03-21T11:34:45.933Z,63.6
2017-03-21T11:35:47.821Z,63.9
2017-03-21T11:36:49.683Z,64.7
2017-03-21T11:37:51.538Z,63.9
2017-03-21T11:38:53.391Z,63.1
2017-03-21T11:39:55.323Z,63.6
2017-03-21T11:40:57.170Z,63
2017-03-21T11:41:59.708Z,62.8
2017-03-21T11:43:01.913Z,63.3
2017-03-21T11:44:03.790Z,63.4
2017-03-21T11:45:05.699Z,63.7
2017-03-21T11:46:07.556Z,63.2
2017-03-21T11:47:09.422Z,63.6
2017-03-21T11:48:11.482Z,63.7
2017-03-21T11:49:13.360Z,64.1
2017-03-21T11:50:15.267Z,65.3
2017-03-21T11:51:17.460Z,65.2
2017-03-21T11:52:19.534Z,65
2017-03-21T11:53:21.541Z,65.4
2017-03-21T11:54:23.746Z,65.1
2017-03-21T11:55:25.609Z,66
2017-03-21T11:56:27.828Z,66.2
2017-03-21T11:57:29.729Z,64.5
2017-03-21T11:58:31.931Z,65
2017-03-21T11:59:34.450Z,65.6
2017-03-21T12:00:36.327Z,66.7
2017-03-21T12:01:38.469Z,67.2
2017-03-21T12:02:40.341Z,68.2
2017-03-21T12:03:42.195Z,68.6
2017-03-21T12:04:44.094Z,68.8
2017-03-21T12:05:45.964Z,68.1
2017-03-21T12:06:47.809Z,68.3
2017-03-21T12:07:49.668Z,68.2
2017-03-21T12:08:51.886Z,68.1
2017-03-21T12:09:54.120Z,67
2017-03-21T12:10:55.988Z,67.3
2017-03-21T12:11:57.827Z,68.5
2017-03-21T12:13:00.082Z,67.7
2017-03-21T12:14:02.315Z,66.8
2017-03-21T12:15:04.179Z,68
2017-03-21T12:16:06.017Z,65.7
2017-03-21T12:17:07.912Z,64.4
2017-03-21T12:18:10.114Z,64.7
2017-03-21T12:19:11.969Z,63.1
2017-03-21T12:20:13.818Z,64.4
2017-03-21T12:21:15.684Z,62.8
2017-03-21T12:22:17.887Z,62.9
2017-03-21T12:23:19.747Z,60.9
2017-03-21T12:24:21.602Z,61.6
2017-03-21T12:25:23.449Z,60.3
2017-03-21T12:26:25.473Z,59.8
2017-03-21T12:27:27.348Z,59.1
2017-03-21T12:28:29.677Z,59.3
2017-03-21T12:29:31.885Z,59.4
2017-03-21T12:30:33.748Z,58.5
2017-03-21T12:31:35.603Z,58.8
2017-03-21T12:32:37.486Z,58.3
2017-03-21T12:33:39.706Z,57.6
2017-03-21T12:34:41.586Z,57
2017-03-21T12:35:43.437Z,57.9
2017-03-21T12:36:45.286Z,57.8
2017-03-21T12:37:47.168Z,59.2
2017-03-21T12:38:49.471Z,57.8
2017-03-21T12:39:51.329Z,57.9
2017-03-21T12:40:53.176Z,57.9
2017-03-21T12:41:55.390Z,59.1
2017-03-21T12:42:57.585Z,57.8
2017-03-21T12:44:00.048Z,57.8
2017-03-21T12:45:01.962Z,58.6
2017-03-21T12:46:04.017Z,58.2
2017-03-21T12:47:05.913Z,58.3
2017-03-21T12:48:07.813Z,58.8
2017-03-21T12:49:09.730Z,60.2
2017-03-21T12:50:11.602Z,59.5
2017-03-21T12:51:13.555Z,60.7
2017-03-21T12:52:15.435Z,60.6
2017-03-21T12:53:17.641Z,60.1
2017-03-21T12:54:19.836Z,60.7
2017-03-21T12:55:21.708Z,61.7
2017-03-21T12:56:23.575Z,61.5
2017-03-21T12:57:25.427Z,62.1
2017-03-21T12:58:27.296Z,61.4
2017-03-21T12:59:29.445Z,63
2017-03-21T13:00:31.313Z,63.7
2017-03-21T13:01:33.164Z,66.1
2017-03-21T13:02:35.021Z,64.6
2017-03-21T13:03:36.898Z,65.4
2017-03-21T13:04:38.788Z,63.8
2017-03-21T13:05:41.345Z,63.6
2017-03-21T13:06:43.198Z,62.6
2017-03-21T13:07:45.078Z,65
2017-03-21T13:08:46.984Z,63
2017-03-21T13:09:48.830Z,63.6
2017-03-21T13:10:50.692Z,62.9
2017-03-21T13:11:52.563Z,62.8
2017-03-21T13:12:54.475Z,63.1
2017-03-21T13:13:56.496Z,63.1
2017-03-21T13:14:58.356Z,63.7
2017-03-21T13:16:00.211Z,63.6
2017-03-21T13:17:02.441Z,63.5
2017-03-21T13:18:04.287Z,61.7
2017-03-21T13:19:06.166Z,62
2017-03-21T13:20:08.025Z,61.9
2017-03-21T13:21:09.894Z,60.3
2017-03-21T13:22:12.090Z,60.1
2017-03-21T13:23:13.944Z,61.4
2017-03-21T13:24:15.795Z,59.8
2017-03-21T13:25:17.661Z,58.3
2017-03-21T13:26:19.533Z,58.1
2017-03-21T13:27:21.819Z,59.1
2017-03-21T13:28:23.686Z,58.6
2017-03-21T13:29:25.895Z,58.8
2017-03-21T13:30:27.741Z,58.2
2017-03-21T13:31:29.676Z,58.2
2017-03-21T13:32:31.540Z,58.3
2017-03-21T13:33:33.647Z,58.4
2017-03-21T13:34:35.499Z,59.2
2017-03-21T13:35:37.356Z,59.3
2017-03-21T13:36:39.208Z,60.3
2017-03-21T13:37:41.073Z,60.4
2017-03-21T13:38:43.284Z,61.9
2017-03-21T13:39:45.663Z,61.5
2017-03-21T13:40:47.542Z,61.5
2017-03-21T13:41:49.415Z,63.1
2017-03-21T13:42:51.265Z,62.9
2017-03-21T13:43:53.807Z,63.1
2017-03-21T13:44:55.649Z,63.5
2017-03-21T13:45:57.510Z,63.2
2017-03-21T13:46:59.377Z,63.9
2017-03-21T13:48:01.239Z,61.7
2017-03-21T13:49:03.171Z,61.5
2017-03-21T13:50:05.031Z,61.1
2017-03-21T13:51:06.882Z,61.3
2017-03-21T13:52:09.127Z,61.7
2017-03-21T13:53:10.981Z,63.6
2017-03-21T13:54:12.842Z,67.8
2017-03-21T13:55:14.697Z,70.4
2017-03-21T13:56:16.551Z,71.8
2017-03-21T13:57:18.398Z,73.6
2017-03-21T13:58:20.255Z,75.4
2017-03-21T13:59:22.673Z,74.8
2017-03-21T14:00:24.512Z,75.9
2017-03-21T14:01:26.366Z,75.1
2017-03-21T14:02:28.560Z,76.3